BLY388 EGAE-EGGP
Flight info
| Callsign | BLY388 |
|---|---|
| Flight time | 0h 33m |
| Altitude | 25000 |
| Route | BELZU L10 DUFFY L15 PEPOD Q38 SOSIM L28 PENIL |
| Aircraft | E75L/M-SDE3GILORVW/S |
Departure
| Time | 2026-05-06 13:01 |
|---|---|
| Airport | City of Derry Airport (EGAE) |
Arrival
| Time | 2026-05-06 13:35 |
|---|---|
| Airport | Liverpool John Lennon Airport (EGGP) |
| Time | Latitude | Longitude | Altitude | Speed | Heading |
|---|---|---|---|---|---|
| 2026-05-06 12:50 | 55.04010 | -7.15815 | 10 ft | 0 kts | 169° |
| 2026-05-06 12:55 | 55.04017 | -7.15817 | 10 ft | 2 kts | 169° |
| 2026-05-06 12:55 | 55.04031 | -7.15822 | 10 ft | 2 kts | 169° |
| 2026-05-06 12:55 | 55.04046 | -7.15827 | 10 ft | 2 kts | 169° |
| 2026-05-06 12:55 | 55.04060 | -7.15825 | 10 ft | 2 kts | 207° |
| 2026-05-06 12:56 | 55.04070 | -7.15808 | 9 ft | 2 kts | 244° |
| 2026-05-06 12:56 | 55.04074 | -7.15784 | 9 ft | 1 kts | 259° |
| 2026-05-06 12:56 | 55.04074 | -7.15780 | 9 ft | 0 kts | 259° |
| 2026-05-06 12:57 | 55.04073 | -7.15786 | 9 ft | 2 kts | 259° |
| 2026-05-06 12:58 | 55.04075 | -7.15847 | 9 ft | 8 kts | 298° |
| 2026-05-06 12:58 | 55.04147 | -7.15898 | 8 ft | 13 kts | 348° |
| 2026-05-06 12:58 | 55.04243 | -7.15934 | 6 ft | 15 kts | 348° |
| 2026-05-06 12:58 | 55.04289 | -7.16076 | 5 ft | 16 kts | 257° |
| 2026-05-06 12:59 | 55.04256 | -7.16260 | 7 ft | 15 kts | 252° |
| 2026-05-06 12:59 | 55.04225 | -7.16437 | 8 ft | 15 kts | 253° |
| 2026-05-06 12:59 | 55.04192 | -7.16633 | 10 ft | 19 kts | 254° |
| 2026-05-06 12:59 | 55.04150 | -7.16878 | 12 ft | 23 kts | 253° |
| 2026-05-06 13:00 | 55.04101 | -7.17159 | 15 ft | 25 kts | 253° |
| 2026-05-06 13:00 | 55.04053 | -7.17420 | 18 ft | 15 kts | 242° |
| 2026-05-06 13:00 | 55.03996 | -7.17566 | 21 ft | 11 kts | 252° |
| 2026-05-06 13:00 | 55.04013 | -7.17645 | 20 ft | 8 kts | 18° |
| 2026-05-06 13:01 | 55.04052 | -7.17447 | 19 ft | 47 kts | 73° |
| 2026-05-06 13:01 | 55.04223 | -7.16460 | 9 ft | 120 kts | 73° |
| 2026-05-06 13:01 | 55.04505 | -7.14816 | 277 ft | 150 kts | 72° |
| 2026-05-06 13:01 | 55.04814 | -7.13080 | 928 ft | 158 kts | 73° |
| 2026-05-06 13:02 | 55.05154 | -7.11102 | 1340 ft | 181 kts | 74° |
| 2026-05-06 13:02 | 55.05535 | -7.08909 | 1625 ft | 205 kts | 75° |
| 2026-05-06 13:02 | 55.05971 | -7.06384 | 1937 ft | 237 kts | 75° |
| 2026-05-06 13:02 | 55.06056 | -7.03462 | 2489 ft | 252 kts | 109° |
| 2026-05-06 13:03 | 55.05120 | -7.00879 | 3357 ft | 255 kts | 130° |
| 2026-05-06 13:03 | 55.04164 | -6.98344 | 4302 ft | 257 kts | 123° |
| 2026-05-06 13:03 | 55.03207 | -6.95724 | 5240 ft | 258 kts | 124° |
| 2026-05-06 13:03 | 55.02224 | -6.93164 | 6080 ft | 261 kts | 126° |
| 2026-05-06 13:04 | 55.01195 | -6.90551 | 6885 ft | 266 kts | 126° |
| 2026-05-06 13:04 | 55.00130 | -6.87881 | 7682 ft | 271 kts | 126° |
| 2026-05-06 13:04 | 54.99043 | -6.85175 | 8407 ft | 277 kts | 126° |
| 2026-05-06 13:04 | 54.97938 | -6.82436 | 9121 ft | 282 kts | 126° |
| 2026-05-06 13:05 | 54.96811 | -6.79647 | 9829 ft | 288 kts | 126° |
| 2026-05-06 13:05 | 54.95655 | -6.76795 | 10420 ft | 297 kts | 126° |
| 2026-05-06 13:05 | 54.94396 | -6.73691 | 10435 ft | 326 kts | 126° |
| 2026-05-06 13:05 | 54.93041 | -6.70355 | 10524 ft | 350 kts | 126° |
| 2026-05-06 13:06 | 54.91624 | -6.66871 | 10926 ft | 363 kts | 126° |
| 2026-05-06 13:06 | 54.90165 | -6.63288 | 11605 ft | 366 kts | 126° |
| 2026-05-06 13:06 | 54.88705 | -6.59709 | 12325 ft | 367 kts | 126° |
| 2026-05-06 13:06 | 54.87233 | -6.56108 | 13014 ft | 369 kts | 126° |
| 2026-05-06 13:07 | 54.85729 | -6.52431 | 13641 ft | 373 kts | 126° |
| 2026-05-06 13:07 | 54.84243 | -6.48805 | 14231 ft | 377 kts | 126° |
| 2026-05-06 13:07 | 54.82716 | -6.45082 | 14829 ft | 380 kts | 126° |
| 2026-05-06 13:07 | 54.81183 | -6.41354 | 15398 ft | 384 kts | 126° |
| 2026-05-06 13:08 | 54.79641 | -6.37608 | 15979 ft | 387 kts | 126° |
| 2026-05-06 13:08 | 54.78061 | -6.33774 | 16542 ft | 391 kts | 127° |
| 2026-05-06 13:08 | 54.76483 | -6.29951 | 17091 ft | 394 kts | 127° |
| 2026-05-06 13:08 | 54.74883 | -6.26082 | 17625 ft | 398 kts | 127° |
| 2026-05-06 13:09 | 54.73291 | -6.22239 | 18153 ft | 401 kts | 127° |
| 2026-05-06 13:09 | 54.71652 | -6.18288 | 18683 ft | 404 kts | 127° |
| 2026-05-06 13:09 | 54.70018 | -6.14353 | 19218 ft | 407 kts | 127° |
| 2026-05-06 13:09 | 54.68357 | -6.10363 | 19720 ft | 410 kts | 127° |
| 2026-05-06 13:10 | 54.66688 | -6.06360 | 20209 ft | 414 kts | 127° |
| 2026-05-06 13:10 | 54.65007 | -6.02333 | 20693 ft | 418 kts | 127° |
| 2026-05-06 13:10 | 54.63311 | -5.98277 | 21184 ft | 421 kts | 127° |
| 2026-05-06 13:10 | 54.61605 | -5.94202 | 21673 ft | 424 kts | 127° |
| 2026-05-06 13:11 | 54.59875 | -5.90079 | 22147 ft | 427 kts | 126° |
| 2026-05-06 13:11 | 54.58144 | -5.85960 | 22604 ft | 430 kts | 126° |
| 2026-05-06 13:11 | 54.56380 | -5.81769 | 23075 ft | 433 kts | 126° |
| 2026-05-06 13:11 | 54.54635 | -5.77630 | 23517 ft | 436 kts | 126° |
| 2026-05-06 13:12 | 54.52855 | -5.73416 | 23954 ft | 439 kts | 126° |
| 2026-05-06 13:12 | 54.51051 | -5.69152 | 24387 ft | 442 kts | 126° |
| 2026-05-06 13:12 | 54.49250 | -5.64902 | 24812 ft | 445 kts | 126° |
| 2026-05-06 13:12 | 54.47414 | -5.60577 | 25009 ft | 450 kts | 126° |
| 2026-05-06 13:13 | 54.45567 | -5.56234 | 25024 ft | 448 kts | 126° |
| 2026-05-06 13:13 | 54.43753 | -5.51976 | 25025 ft | 447 kts | 126° |
| 2026-05-06 13:13 | 54.41927 | -5.47698 | 25032 ft | 446 kts | 126° |
| 2026-05-06 13:13 | 54.40100 | -5.43424 | 25031 ft | 445 kts | 126° |
| 2026-05-06 13:14 | 54.38279 | -5.39170 | 25034 ft | 446 kts | 126° |
| 2026-05-06 13:14 | 54.36436 | -5.34874 | 25034 ft | 446 kts | 127° |
| 2026-05-06 13:14 | 54.34596 | -5.30591 | 25040 ft | 453 kts | 127° |
| 2026-05-06 13:14 | 54.32707 | -5.26204 | 25044 ft | 459 kts | 127° |
| 2026-05-06 13:15 | 54.30809 | -5.21802 | 25040 ft | 460 kts | 127° |
| 2026-05-06 13:15 | 54.28939 | -5.17471 | 25040 ft | 460 kts | 127° |
| 2026-05-06 13:15 | 54.27047 | -5.13099 | 25041 ft | 459 kts | 127° |
| 2026-05-06 13:15 | 54.25147 | -5.08715 | 25038 ft | 459 kts | 127° |
| 2026-05-06 13:16 | 54.23242 | -5.04328 | 25036 ft | 458 kts | 127° |
| 2026-05-06 13:16 | 54.21351 | -4.99982 | 25033 ft | 457 kts | 127° |
| 2026-05-06 13:16 | 54.19456 | -4.95631 | 25032 ft | 457 kts | 127° |
| 2026-05-06 13:16 | 54.17565 | -4.91301 | 25032 ft | 457 kts | 127° |
| 2026-05-06 13:17 | 54.15670 | -4.86965 | 25034 ft | 457 kts | 127° |
| 2026-05-06 13:17 | 54.13776 | -4.82643 | 25033 ft | 457 kts | 127° |
| 2026-05-06 13:17 | 54.11881 | -4.78324 | 24852 ft | 459 kts | 127° |
| 2026-05-06 13:17 | 54.09974 | -4.73984 | 24352 ft | 456 kts | 127° |
| 2026-05-06 13:18 | 54.08106 | -4.69742 | 23861 ft | 451 kts | 127° |
| 2026-05-06 13:18 | 54.06239 | -4.65507 | 23367 ft | 447 kts | 127° |
| 2026-05-06 13:18 | 54.04380 | -4.61301 | 22875 ft | 443 kts | 127° |
| 2026-05-06 13:18 | 54.02552 | -4.57170 | 22392 ft | 439 kts | 127° |
| 2026-05-06 13:19 | 54.00733 | -4.53066 | 21913 ft | 436 kts | 127° |
| 2026-05-06 13:19 | 53.98915 | -4.48971 | 21435 ft | 432 kts | 127° |
| 2026-05-06 13:19 | 53.97118 | -4.44930 | 20961 ft | 429 kts | 127° |
| 2026-05-06 13:19 | 53.95318 | -4.40890 | 20481 ft | 426 kts | 127° |
| 2026-05-06 13:20 | 53.93557 | -4.36942 | 20040 ft | 423 kts | 127° |
| 2026-05-06 13:20 | 53.91787 | -4.32980 | 19554 ft | 420 kts | 128° |
| 2026-05-06 13:20 | 53.90039 | -4.29077 | 19091 ft | 416 kts | 128° |
| 2026-05-06 13:20 | 53.88303 | -4.25202 | 18651 ft | 414 kts | 128° |
| 2026-05-06 13:21 | 53.86564 | -4.21329 | 18177 ft | 411 kts | 128° |
| 2026-05-06 13:21 | 53.84860 | -4.17538 | 17729 ft | 408 kts | 128° |
| 2026-05-06 13:21 | 53.83152 | -4.13747 | 17276 ft | 406 kts | 128° |
| 2026-05-06 13:21 | 53.81438 | -4.09947 | 16831 ft | 403 kts | 128° |
| 2026-05-06 13:22 | 53.79766 | -4.06245 | 16399 ft | 400 kts | 128° |
| 2026-05-06 13:22 | 53.78089 | -4.02537 | 15954 ft | 398 kts | 128° |
| 2026-05-06 13:22 | 53.76402 | -3.98814 | 15515 ft | 396 kts | 128° |
| 2026-05-06 13:22 | 53.74742 | -3.95155 | 15073 ft | 393 kts | 128° |
| 2026-05-06 13:23 | 53.73088 | -3.91513 | 14640 ft | 391 kts | 128° |
| 2026-05-06 13:23 | 53.71448 | -3.87908 | 14211 ft | 389 kts | 128° |
| 2026-05-06 13:23 | 53.69810 | -3.84314 | 13794 ft | 387 kts | 128° |
| 2026-05-06 13:23 | 53.68167 | -3.80713 | 13360 ft | 384 kts | 128° |
| 2026-05-06 13:24 | 53.66560 | -3.77197 | 12941 ft | 381 kts | 128° |
| 2026-05-06 13:24 | 53.64946 | -3.73671 | 12495 ft | 379 kts | 128° |
| 2026-05-06 13:24 | 53.63352 | -3.70192 | 12074 ft | 375 kts | 127° |
| 2026-05-06 13:24 | 53.61752 | -3.66757 | 11642 ft | 372 kts | 131° |
| 2026-05-06 13:25 | 53.60001 | -3.63782 | 11168 ft | 343 kts | 136° |
| 2026-05-06 13:25 | 53.58392 | -3.61163 | 10849 ft | 310 kts | 136° |
| 2026-05-06 13:25 | 53.56893 | -3.58730 | 10611 ft | 294 kts | 136° |
| 2026-05-06 13:25 | 53.55430 | -3.56359 | 10254 ft | 289 kts | 136° |
| 2026-05-06 13:26 | 53.53990 | -3.54030 | 9938 ft | 287 kts | 136° |
| 2026-05-06 13:26 | 53.52549 | -3.51700 | 9619 ft | 287 kts | 136° |
| 2026-05-06 13:26 | 53.51122 | -3.49396 | 9303 ft | 285 kts | 136° |
| 2026-05-06 13:26 | 53.49707 | -3.47114 | 8989 ft | 283 kts | 135° |
| 2026-05-06 13:27 | 53.48350 | -3.44757 | 8669 ft | 281 kts | 122° |
| 2026-05-06 13:27 | 53.47448 | -3.41910 | 8390 ft | 278 kts | 115° |
| 2026-05-06 13:27 | 53.46605 | -3.39005 | 8082 ft | 276 kts | 115° |
| 2026-05-06 13:27 | 53.45766 | -3.36107 | 7767 ft | 273 kts | 115° |
| 2026-05-06 13:28 | 53.44948 | -3.33277 | 7429 ft | 271 kts | 115° |
| 2026-05-06 13:28 | 53.44126 | -3.30438 | 7159 ft | 270 kts | 115° |
| 2026-05-06 13:28 | 53.43066 | -3.27892 | 6875 ft | 270 kts | 137° |
| 2026-05-06 13:28 | 53.41628 | -3.25882 | 6410 ft | 270 kts | 140° |
| 2026-05-06 13:29 | 53.40179 | -3.23910 | 5938 ft | 264 kts | 140° |
| 2026-05-06 13:29 | 53.38791 | -3.22028 | 5463 ft | 256 kts | 140° |
| 2026-05-06 13:29 | 53.37434 | -3.20193 | 5007 ft | 247 kts | 140° |
| 2026-05-06 13:29 | 53.36128 | -3.18428 | 4567 ft | 238 kts | 140° |
| 2026-05-06 13:30 | 53.34865 | -3.16723 | 4161 ft | 226 kts | 140° |
| 2026-05-06 13:30 | 53.33681 | -3.15127 | 3808 ft | 212 kts | 139° |
| 2026-05-06 13:30 | 53.32559 | -3.13603 | 3456 ft | 211 kts | 136° |
| 2026-05-06 13:30 | 53.31906 | -3.11522 | 3070 ft | 202 kts | 93° |
| 2026-05-06 13:31 | 53.32097 | -3.09275 | 2808 ft | 194 kts | 78° |
| 2026-05-06 13:31 | 53.32288 | -3.07073 | 2603 ft | 181 kts | 82° |
| 2026-05-06 13:31 | 53.32408 | -3.05081 | 2321 ft | 166 kts | 83° |
| 2026-05-06 13:31 | 53.32503 | -3.03255 | 2059 ft | 151 kts | 84° |
| 2026-05-06 13:32 | 53.32584 | -3.01589 | 1832 ft | 136 kts | 84° |
| 2026-05-06 13:32 | 53.32655 | -3.00122 | 1655 ft | 124 kts | 84° |
| 2026-05-06 13:32 | 53.32725 | -2.98668 | 1500 ft | 124 kts | 85° |
| 2026-05-06 13:32 | 53.32793 | -2.97228 | 1345 ft | 126 kts | 85° |
| 2026-05-06 13:33 | 53.32862 | -2.95765 | 1179 ft | 126 kts | 84° |
| 2026-05-06 13:33 | 53.32930 | -2.94306 | 1009 ft | 126 kts | 86° |
| 2026-05-06 13:33 | 53.32999 | -2.92847 | 836 ft | 127 kts | 86° |
| 2026-05-06 13:33 | 53.33067 | -2.91371 | 663 ft | 126 kts | 86° |
| 2026-05-06 13:34 | 53.33134 | -2.89919 | 493 ft | 126 kts | 84° |
| 2026-05-06 13:34 | 53.33202 | -2.88457 | 323 ft | 127 kts | 85° |
| 2026-05-06 13:34 | 53.33277 | -2.86962 | 178 ft | 127 kts | 86° |
| 2026-05-06 13:34 | 53.33339 | -2.85552 | 78 ft | 111 kts | 86° |
| 2026-05-06 13:35 | 53.33384 | -2.84681 | 83 ft | 39 kts | 75° |
| 2026-05-06 13:35 | 53.33445 | -2.84452 | 84 ft | 18 kts | 59° |
| 2026-05-06 13:35 | 53.33497 | -2.84306 | 85 ft | 7 kts | 59° |
| 2026-05-06 13:35 | 53.33535 | -2.84250 | 86 ft | 7 kts | 354° |
| 2026-05-06 13:36 | 53.33560 | -2.84315 | 86 ft | 9 kts | 267° |
| 2026-05-06 13:36 | 53.33553 | -2.84449 | 86 ft | 13 kts | 265° |
| 2026-05-06 13:36 | 53.33546 | -2.84615 | 86 ft | 14 kts | 267° |
| 2026-05-06 13:36 | 53.33538 | -2.84789 | 86 ft | 15 kts | 265° |
| 2026-05-06 13:37 | 53.33529 | -2.84980 | 83 ft | 18 kts | 265° |
| 2026-05-06 13:37 | 53.33519 | -2.85197 | 83 ft | 19 kts | 265° |
| 2026-05-06 13:37 | 53.33511 | -2.85368 | 82 ft | 14 kts | 265° |
| 2026-05-06 13:37 | 53.33513 | -2.85488 | 82 ft | 7 kts | 311° |
| 2026-05-06 13:38 | 53.33563 | -2.85508 | 83 ft | 7 kts | 355° |
| 2026-05-06 13:38 | 53.33607 | -2.85527 | 84 ft | 6 kts | 306° |
| 2026-05-06 13:38 | 53.33601 | -2.85595 | 84 ft | 6 kts | 197° |
| 2026-05-06 13:38 | 53.33563 | -2.85589 | 83 ft | 4 kts | 175° |
| 2026-05-06 13:39 | 53.33561 | -2.85589 | 83 ft | 0 kts | 175° |